Time;durP1;ratioP1;P1;durP2;ratioP2;P2;SDS_P1;SDS_P2;PMS_P1;PMS_P2;Temp;Humidity;BMP_temperature;BMP_pressure;BME280_temperature;BME280_humidity;BME280_pressure;Samples;Min_cycle;Max_cycle;Signal;HPM_P1;HPM_P2
2023/12/25 00:00:41;;;;;;;30.88;6.13;;;;;;;-146.27;95.89;31839.28;5066847;28;20499;-70
2023/12/25 00:03:07;;;;;;;35.17;7.18;;;;;;;-146.27;95.85;31831.34;5067042;28;20081;-70
2023/12/25 00:05:32;;;;;;;26.77;4.68;;;;;;;-146.27;95.69;31801.59;5070671;28;20025;-70
2023/12/25 00:07:57;;;;;;;34.20;4.80;;;;;;;-146.27;97.16;32027.72;5065658;28;20540;-70
2023/12/25 00:10:23;;;;;;;30.42;4.57;;;;;;;-146.27;97.03;31884.91;5075957;28;20601;-71
2023/12/25 00:12:48;;;;;;;32.08;4.93;;;;;;;-146.27;96.95;31863.09;5067836;28;20854;-70
2023/12/25 00:15:13;;;;;;;27.17;4.28;;;;;;;-146.27;96.73;31964.22;5068739;28;20881;-71
2023/12/25 00:17:39;;;;;;;36.15;4.85;;;;;;;-146.27;97.68;31882.91;5065261;28;20105;-70
2023/12/25 00:20:05;;;;;;;35.33;4.80;;;;;;;-146.27;96.92;31904.72;5053789;28;20400;-71
2023/12/25 00:22:30;;;;;;;38.75;5.88;;;;;;;-146.27;96.68;31859.13;5060416;28;20032;-69
2023/12/25 00:24:55;;;;;;;40.97;5.60;;;;;;;-146.27;97.10;31867.03;5068799;28;20506;-69
2023/12/25 00:27:21;;;;;;;33.38;6.03;;;;;;;-146.27;97.79;31992.00;5079429;28;20039;-71
2023/12/25 00:29:46;;;;;;;38.17;4.95;;;;;;;-146.27;97.11;31924.56;5065154;28;20017;-71
2023/12/25 00:32:12;;;;;;;25.42;4.88;;;;;;;-146.27;97.15;31914.66;5066264;28;20067;-71
2023/12/25 00:34:37;;;;;;;31.08;4.18;;;;;;;-146.27;96.89;31841.25;5064840;28;20063;-71
2023/12/25 00:37:03;;;;;;;23.15;4.45;;;;;;;-146.27;96.72;31859.13;5067771;28;20066;-71
2023/12/25 00:39:28;;;;;;;28.00;4.53;;;;;;;-146.27;96.79;31855.16;5071798;28;20036;-70
2023/12/25 00:41:53;;;;;;;21.00;4.07;;;;;;;-146.27;97.72;32065.38;5072159;28;20090;-70
2023/12/25 00:44:19;;;;;;;29.73;3.78;;;;;;;-146.27;96.52;31817.47;5071309;28;21210;-69
2023/12/25 00:46:44;;;;;;;30.63;4.55;;;;;;;-146.27;95.23;31718.28;5060009;28;20036;-71
2023/12/25 00:49:10;;;;;;;27.85;4.20;;;;;;;-146.27;95.62;31914.66;5064724;28;20115;-70
2023/12/25 00:51:35;;;;;;;17.55;3.13;;;;;;;-146.27;96.17;31843.25;5055671;28;20404;-71
2023/12/25 00:54:00;;;;;;;39.17;5.13;;;;;;;-146.27;95.63;31831.34;5063133;28;20123;-71
2023/12/25 00:56:26;;;;;;;16.05;2.88;;;;;;;-146.27;95.34;31823.41;5072148;28;20855;-70
2023/12/25 00:58:51;;;;;;;20.02;3.42;;;;;;;-146.27;95.96;31984.06;5059312;28;20033;-71
2023/12/25 01:01:16;;;;;;;28.00;3.90;;;;;;;-146.27;96.36;31874.97;5058775;28;20063;-72
2023/12/25 01:03:42;;;;;;;24.15;3.47;;;;;;;-146.27;96.48;31900.75;5069616;28;20048;-72
2023/12/25 01:06:07;;;;;;;36.17;3.70;;;;;;;-146.27;95.52;31829.38;5067699;28;20051;-71
2023/12/25 01:08:32;;;;;;;35.28;4.68;;;;;;;-146.27;95.23;31795.66;5063505;28;20024;-71
2023/12/25 01:11:01;;;;;;;30.15;4.47;;;;;;;-146.27;95.59;31835.31;5067470;28;20101;-70
2023/12/25 01:13:26;;;;;;;27.13;3.85;;;;;;;-146.27;95.84;31851.19;5070946;28;20024;-71
2023/12/25 01:15:51;;;;;;;29.40;4.70;;;;;;;-146.27;95.11;31787.72;5057554;28;20499;-70
2023/12/25 01:18:17;;;;;;;38.35;4.18;;;;;;;-146.27;95.56;31815.47;5068978;28;20149;-71
2023/12/25 01:20:43;;;;;;;36.00;5.13;;;;;;;-146.27;95.88;31843.25;5067919;28;20020;-71
2023/12/25 01:23:09;;;;;;;30.40;4.18;;;;;;;-146.27;95.53;31783.75;5059732;28;20112;-71
2023/12/25 01:25:34;;;;;;;34.10;5.90;;;;;;;-146.27;96.42;31932.50;5066498;28;20119;-71
2023/12/25 01:27:59;;;;;;;34.38;4.32;;;;;;;-146.27;96.70;31874.97;5069231;28;20032;-70
2023/12/25 01:30:24;;;;;;;40.65;5.55;;;;;;;-146.27;97.63;31938.44;5068550;28;20112;-70
2023/12/25 01:32:50;;;;;;;32.50;4.68;;;;;;;-146.27;97.29;31898.78;5059658;28;20028;-71
2023/12/25 01:35:15;;;;;;;31.17;4.13;;;;;;;-146.27;97.22;31914.66;5060734;28;20058;-70
2023/12/25 01:37:41;;;;;;;35.92;4.25;;;;;;;-146.27;96.89;31952.34;5057485;28;20472;-70
2023/12/25 01:40:07;;;;;;;28.50;4.68;;;;;;;-146.27;95.91;31752.00;5065819;28;20020;-70
2023/12/25 01:42:32;;;;;;;28.27;4.38;;;;;;;-146.27;95.74;31736.16;5065970;28;20032;-70
2023/12/25 01:44:57;;;;;;;27.05;2.58;;;;;;;-146.27;95.42;31736.16;5059923;28;20039;-71
2023/12/25 01:47:23;;;;;;;18.65;2.60;;;;;;;-146.27;95.45;31803.59;5068718;28;20033;-71
2023/12/25 01:49:48;;;;;;;25.27;3.67;;;;;;;-146.27;95.74;31867.03;5073421;28;20103;-71
2023/12/25 01:52:15;;;;;;;24.73;3.35;;;;;;;-146.27;95.37;31783.75;5061155;28;20384;-70
2023/12/25 01:54:40;;;;;;;23.08;2.97;;;;;;;-146.27;95.83;31825.41;5062235;28;20045;-71
2023/12/25 01:57:06;;;;;;;19.75;3.50;;;;;;;-146.27;95.12;31720.28;5076596;28;20028;-71
2023/12/25 01:59:31;;;;;;;31.55;4.10;;;;;;;-146.27;95.31;31775.81;5066251;28;20028;-70
2023/12/25 02:02:00;;;;;;;20.15;3.85;;;;;;;-146.27;96.14;31886.88;5061205;28;20135;-70
2023/12/25 02:04:27;;;;;;;31.52;4.07;;;;;;;-146.27;95.50;31819.44;5062140;28;20016;-69
2023/12/25 02:06:53;;;;;;;20.10;2.80;;;;;;;-146.27;96.32;31831.34;5056127;28;20044;-70
2023/12/25 02:09:18;;;;;;;25.65;3.63;;;;;;;-146.27;94.81;31720.28;5067861;28;20403;-71
2023/12/25 02:11:44;;;;;;;26.75;3.65;;;;;;;-146.27;95.48;31829.38;5065615;28;20028;-71
2023/12/25 02:14:11;;;;;;;27.73;5.35;;;;;;;-146.27;95.33;31863.09;5071405;28;20467;-71
2023/12/25 02:16:39;;;;;;;23.25;3.10;;;;;;;-146.27;95.65;31890.84;5074705;28;20024;-71
2023/12/25 02:19:17;;;;;;;26.13;2.95;;;;;;;-146.27;95.61;31831.34;5067862;28;20495;-71
2023/12/25 02:21:42;;;;;;;25.38;2.75;;;;;;;-146.27;94.67;31712.34;5070909;28;20036;-71
2023/12/25 02:24:12;;;;;;;24.85;3.53;;;;;;;-146.27;95.42;31837.28;5058163;28;20024;-70
2023/12/25 02:26:37;;;;;;;30.25;3.80;;;;;;;-146.27;95.82;31878.94;5061606;28;20090;-70
2023/12/25 02:29:03;;;;;;;17.35;3.10;;;;;;;-146.27;94.62;31787.72;5068471;28;20052;-71
2023/12/25 02:31:28;;;;;;;18.77;3.03;;;;;;;-146.27;94.93;31880.94;5060778;28;20434;-70
2023/12/25 02:33:54;;;;;;;39.85;3.95;;;;;;;-146.27;94.87;31813.50;5057735;28;20020;-70
2023/12/25 02:36:19;;;;;;;22.58;3.53;;;;;;;-146.27;94.67;31777.78;5061261;28;20028;-71
2023/12/25 02:38:44;;;;;;;28.70;3.30;;;;;;;-146.27;94.57;31787.72;5066561;28;20484;-71
2023/12/25 02:41:10;;;;;;;35.78;3.40;;;;;;;-146.27;94.23;31805.56;5079193;28;20034;-71
2023/12/25 02:43:35;;;;;;;18.58;2.80;;;;;;;-146.27;93.57;31708.38;5064913;28;20039;-71
2023/12/25 02:46:00;;;;;;;31.05;3.38;;;;;;;-146.27;93.66;31732.19;5057483;28;20441;-71
2023/12/25 02:48:26;;;;;;;16.88;3.20;;;;;;;-146.27;93.87;31809.53;5062784;28;20389;-70
2023/12/25 02:50:51;;;;;;;29.83;4.05;;;;;;;-146.27;93.63;31819.44;5067493;28;20553;-70
2023/12/25 02:53:16;;;;;;;19.13;2.80;;;;;;;-146.27;93.85;31847.22;5065786;28;20063;-71
2023/12/25 02:55:42;;;;;;;24.42;3.17;;;;;;;-146.27;92.91;31785.72;5064717;28;20098;-71
2023/12/25 02:58:07;;;;;;;17.13;3.47;;;;;;;-146.27;93.13;31763.91;5061490;28;20052;-72
2023/12/25 03:00:33;;;;;;;23.92;3.85;;;;;;;-146.27;92.26;31704.41;5063366;28;20055;-71
2023/12/25 03:02:58;;;;;;;24.73;3.28;;;;;;;-146.27;93.36;31736.16;5078377;28;20068;-71
2023/12/25 03:05:23;;;;;;;32.35;3.95;;;;;;;-146.27;93.20;31835.31;5054884;28;20119;-71
2023/12/25 03:07:48;;;;;;;27.83;3.58;;;;;;;-146.27;92.56;31702.44;5062380;28;20112;-71
2023/12/25 03:10:14;;;;;;;25.45;3.97;;;;;;;-146.27;92.82;31789.69;5064252;28;20117;-71
2023/12/25 03:12:39;;;;;;;25.73;4.20;;;;;;;-146.27;93.65;31827.38;5067360;28;20024;-71
2023/12/25 03:15:05;;;;;;;28.35;3.63;;;;;;;-146.27;93.17;31704.41;5059069;28;20033;-71
2023/12/25 03:17:30;;;;;;;20.70;3.38;;;;;;;-146.27;93.47;31704.41;5062515;28;20074;-71
2023/12/25 03:19:56;;;;;;;20.15;3.28;;;;;;;-146.27;92.68;31625.09;5068034;28;20049;-71
2023/12/25 03:22:24;;;;;;;23.65;3.60;;;;;;;-146.27;94.17;31912.66;5058096;28;20022;-70
2023/12/25 03:24:50;;;;;;;33.45;3.30;;;;;;;-146.27;92.67;31636.97;5062180;28;20449;-71
2023/12/25 03:27:15;;;;;;;25.00;3.58;;;;;;;-146.27;93.37;31688.53;5069268;28;20068;-71
2023/12/25 03:29:40;;;;;;;21.38;3.83;;;;;;;-146.27;93.28;31650.88;5058122;28;20492;-70
2023/12/25 03:32:06;;;;;;;24.20;3.35;;;;;;;-146.27;92.93;31744.06;5057905;28;20248;-71
2023/12/25 03:34:31;;;;;;;19.80;3.05;;;;;;;-146.27;92.56;31642.94;5061317;28;20594;-71
2023/12/25 03:36:56;;;;;;;29.55;3.50;;;;;;;-146.27;92.45;31607.22;5057431;28;20024;-71
2023/12/25 03:39:22;;;;;;;19.35;3.20;;;;;;;-146.27;92.81;31769.88;5066361;28;20089;-70
2023/12/25 03:41:47;;;;;;;17.27;2.90;;;;;;;-146.27;92.61;31714.34;5064317;28;20024;-71
2023/12/25 03:44:12;;;;;;;15.82;2.90;;;;;;;-146.27;92.12;31638.97;5067885;28;20030;-71
2023/12/25 03:46:37;;;;;;;17.52;2.80;;;;;;;-146.27;91.74;31613.19;5064740;28;20060;-71
2023/12/25 03:49:03;;;;;;;26.92;3.13;;;;;;;-146.27;92.42;31640.94;5077595;28;20030;-70
2023/12/25 03:51:28;;;;;;;22.55;2.50;;;;;;;-146.27;92.29;31748.03;5069937;28;20062;-70
2023/12/25 03:53:54;;;;;;;24.73;3.75;;;;;;;-146.27;92.63;31744.06;5074397;28;20393;-71
2023/12/25 03:56:22;;;;;;;21.05;3.15;;;;;;;-146.27;91.54;31545.75;5070065;28;20028;-71
2023/12/25 03:58:47;;;;;;;22.02;2.88;;;;;;;-146.27;92.19;31730.19;5080021;28;20463;-71
2023/12/25 04:01:13;;;;;;;21.77;2.38;;;;;;;-146.27;91.92;31775.81;5072304;28;20028;-71
2023/12/25 04:03:38;;;;;;;18.88;2.70;;;;;;;-146.27;91.30;31666.72;5079858;28;20028;-70
2023/12/25 04:06:03;;;;;;;15.30;2.42;;;;;;;-146.27;91.29;31631.03;5071096;28;20443;-69
2023/12/25 04:08:29;;;;;;;14.35;3.75;;;;;;;-146.27;91.05;31664.75;5063555;28;20032;-71
2023/12/25 04:10:54;;;;;;;27.95;3.30;;;;;;;-146.27;91.35;31633.00;5062285;28;20446;-68
2023/12/25 04:13:19;;;;;;;23.75;2.83;;;;;;;-146.27;92.13;31694.50;5063803;28;20024;-72
2023/12/25 04:15:45;;;;;;;14.23;2.10;;;;;;;-146.27;91.54;31642.94;5060532;28;20024;-71
2023/12/25 04:18:10;;;;;;;19.15;3.90;;;;;;;-146.27;91.65;31611.19;5069666;28;20025;-70
2023/12/25 04:20:36;;;;;;;24.23;2.83;;;;;;;-146.27;91.69;31652.84;5057475;28;20037;-71
2023/12/25 04:23:01;;;;;;;22.38;2.83;;;;;;;-146.27;92.52;31781.75;5064097;28;20030;-70
2023/12/25 04:25:26;;;;;;;18.13;2.40;;;;;;;-146.27;90.99;31593.34;5068314;28;20036;-71
2023/12/25 04:27:52;;;;;;;20.20;3.15;;;;;;;-146.27;91.24;31567.56;5067872;28;20048;-70
2023/12/25 04:30:17;;;;;;;16.20;2.80;;;;;;;-146.27;92.12;31696.47;5058915;28;20392;-72
2023/12/25 04:32:43;;;;;;;16.30;2.45;;;;;;;-146.27;91.60;31617.16;5059050;28;20384;-70
2023/12/25 04:35:08;;;;;;;17.77;2.83;;;;;;;-146.27;91.89;31613.19;5066715;28;20277;-71
2023/12/25 04:37:33;;;;;;;14.75;2.30;;;;;;;-146.27;91.71;31607.22;5067795;28;20409;-71
2023/12/25 04:39:59;;;;;;;21.40;2.63;;;;;;;-146.27;92.23;31700.44;5066777;28;20028;-71
2023/12/25 04:42:24;;;;;;;17.30;2.30;;;;;;;-146.27;91.91;31744.06;5069036;28;20033;-72
2023/12/25 04:44:49;;;;;;;13.02;1.85;;;;;;;-146.27;92.23;31658.78;5066317;28;20028;-71
2023/12/25 04:47:15;;;;;;;10.93;1.70;;;;;;;-146.27;90.99;31615.16;5068752;28;20028;-71
2023/12/25 04:49:40;;;;;;;16.23;2.03;;;;;;;-146.27;91.40;31674.66;5069169;28;20062;-71
2023/12/25 04:52:05;;;;;;;9.00;1.80;;;;;;;-146.27;90.96;31668.72;5069038;28;20035;-71
2023/12/25 04:54:31;;;;;;;12.70;1.55;;;;;;;-146.27;90.23;31593.34;5067223;28;20052;-71
2023/12/25 04:56:57;;;;;;;8.23;1.33;;;;;;;-146.27;88.99;31458.50;5070990;28;20104;-72
2023/12/25 04:59:22;;;;;;;9.07;1.83;;;;;;;-146.27;89.69;31648.88;5060281;28;20037;-71
2023/12/25 05:01:53;;;;;;;12.65;1.58;;;;;;;-146.27;89.20;31636.97;5069005;28;20023;-72
2023/12/25 05:04:18;;;;;;;8.88;1.20;;;;;;;-146.27;88.91;31595.34;5068567;28;20024;-71
2023/12/25 05:06:43;;;;;;;7.03;1.42;;;;;;;-146.27;88.22;31676.66;5066589;28;20392;-71
2023/12/25 05:09:09;;;;;;;9.38;1.20;;;;;;;-146.27;87.57;31589.38;5074306;28;20435;-71
2023/12/25 05:11:34;;;;;;;9.38;1.02;;;;;;;-146.27;87.20;31619.13;5061807;28;20024;-70
2023/12/25 05:14:00;;;;;;;3.90;0.80;;;;;;;-146.27;87.49;31692.50;5065383;28;20397;-71
2023/12/25 05:16:26;;;;;;;8.98;1.13;;;;;;;-146.27;86.85;31607.22;5066041;28;20029;-72
2023/12/25 05:18:51;;;;;;;3.72;0.93;;;;;;;-146.27;86.21;31581.44;5066750;28;20052;-71
2023/12/25 05:21:17;;;;;;;7.55;1.00;;;;;;;-146.27;86.48;31589.38;5066037;28;20150;-71
2023/12/25 05:23:42;;;;;;;8.52;1.20;;;;;;;-146.27;86.99;31696.47;5074564;28;20322;-71
2023/12/25 05:26:07;;;;;;;7.20;0.90;;;;;;;-146.27;86.89;31775.81;5061801;28;20560;-72
2023/12/25 05:28:33;;;;;;;6.32;0.75;;;;;;;-146.27;87.59;31795.66;5069346;28;20021;-71
2023/12/25 05:30:58;;;;;;;4.53;0.90;;;;;;;-146.27;87.67;31871.00;5053853;28;20060;-71
2023/12/25 05:33:23;;;;;;;6.30;1.25;;;;;;;-146.27;87.32;31752.00;5083335;28;20032;-70
2023/12/25 05:35:49;;;;;;;10.90;1.35;;;;;;;-146.27;88.00;31944.41;5064645;28;20028;-69
2023/12/25 05:38:14;;;;;;;16.85;1.40;;;;;;;-146.27;87.48;31815.47;5063280;28;20020;-70
2023/12/25 05:40:39;;;;;;;12.38;1.95;;;;;;;-146.27;87.22;31839.28;5065759;28;20027;-71
2023/12/25 05:43:05;;;;;;;9.68;1.45;;;;;;;-146.27;86.90;31771.84;5067377;28;20020;-71
2023/12/25 05:45:30;;;;;;;17.27;1.98;;;;;;;-146.27;86.67;31755.97;5060966;28;20107;-71
2023/12/25 05:47:57;;;;;;;10.20;1.23;;;;;;;-146.27;86.84;31799.63;5061748;28;20067;-81
2023/12/25 05:50:22;;;;;;;7.05;1.48;;;;;;;-146.27;86.83;31847.22;5055379;28;20086;-71
2023/12/25 05:52:47;;;;;;;11.02;1.30;;;;;;;-146.27;86.16;31789.69;5052428;28;20072;-71
2023/12/25 05:55:13;;;;;;;6.53;1.50;;;;;;;-146.27;85.56;31777.78;5068163;28;20051;-70
2023/12/25 05:57:38;;;;;;;6.43;1.25;;;;;;;-146.27;85.82;31803.59;5063962;28;20043;-70
2023/12/25 06:00:04;;;;;;;10.02;2.58;;;;;;;-146.27;86.22;31791.69;5061277;28;20020;-70
2023/12/25 06:02:30;;;;;;;8.63;1.70;;;;;;;-146.27;86.11;31795.66;5059021;28;20111;-70
2023/12/25 06:04:55;;;;;;;12.38;1.17;;;;;;;-146.27;86.51;31819.44;5062289;28;20407;-72
2023/12/25 06:07:21;;;;;;;17.85;1.70;;;;;;;-146.27;86.93;31900.75;5062656;28;20043;-70
2023/12/25 06:09:46;;;;;;;11.77;1.40;;;;;;;-146.27;87.25;31934.47;5065422;28;20035;-70
2023/12/25 06:12:12;;;;;;;7.13;1.08;;;;;;;-146.27;85.64;31759.94;5081189;28;20178;-72
2023/12/25 06:14:37;;;;;;;9.95;1.33;;;;;;;-146.27;85.40;31775.81;5067490;28;20150;-70
2023/12/25 06:17:04;;;;;;;10.02;1.02;;;;;;;-146.27;85.38;31871.00;5061271;28;20027;-70
2023/12/25 06:19:29;;;;;;;11.05;1.60;;;;;;;-146.27;85.59;31843.25;5064491;28;20090;-70
2023/12/25 06:21:54;;;;;;;6.55;1.27;;;;;;;-146.27;84.99;31841.25;5069183;28;20032;-70
2023/12/25 06:24:19;;;;;;;9.25;1.35;;;;;;;-146.27;84.34;31712.34;5068600;28;20028;-70
2023/12/25 06:26:45;;;;;;;7.97;1.05;;;;;;;-146.27;85.11;31744.06;5075767;28;20032;-71
2023/12/25 06:29:10;;;;;;;9.15;1.40;;;;;;;-146.27;85.14;31787.72;5066553;28;20027;-71
2023/12/25 06:31:36;;;;;;;5.22;1.05;;;;;;;-146.27;85.22;31771.84;5076171;28;20023;-71
2023/12/25 06:34:01;;;;;;;9.65;1.50;;;;;;;-146.27;84.99;31692.50;5065913;28;20547;-70
2023/12/25 06:36:27;;;;;;;3.65;0.98;;;;;;;-146.27;86.02;31692.50;5070421;28;20117;-72
2023/12/25 06:38:52;;;;;;;6.60;1.60;;;;;;;-146.27;87.77;31871.00;5062900;28;20520;-70
2023/12/25 06:41:17;;;;;;;7.63;1.10;;;;;;;-146.27;88.43;31880.94;5062291;28;20115;-70
2023/12/25 06:43:43;;;;;;;9.00;1.50;;;;;;;-146.27;88.26;31825.41;5060173;28;20079;-71
2023/12/25 06:46:08;;;;;;;13.93;1.95;;;;;;;-146.27;87.75;31746.06;5053742;28;20085;-71
2023/12/25 06:48:34;;;;;;;12.38;1.23;;;;;;;-146.27;87.04;31732.19;5063136;28;20025;-71
2023/12/25 06:51:00;;;;;;;12.43;1.25;;;;;;;-146.27;87.99;31791.69;5069236;28;20590;-71
2023/12/25 06:53:25;;;;;;;9.23;1.38;;;;;;;-146.27;87.35;31732.19;5074491;28;20024;-71
2023/12/25 06:55:50;;;;;;;15.77;1.50;;;;;;;-146.27;87.08;31676.66;5068051;28;20519;-70
2023/12/25 06:58:16;;;;;;;18.27;1.40;;;;;;;-146.27;87.05;31752.00;5063808;28;20024;-70
2023/12/25 07:00:41;;;;;;;10.75;1.17;;;;;;;-146.27;87.56;31843.25;5068251;28;20035;-69
2023/12/25 07:03:06;;;;;;;12.05;2.05;;;;;;;-146.27;87.89;31855.16;5067878;28;20028;-70
2023/12/25 07:05:33;;;;;;;19.40;2.63;;;;;;;-146.27;87.12;31829.38;5077403;28;20036;-70
2023/12/25 07:07:58;;;;;;;10.20;1.23;;;;;;;-146.27;86.36;31716.31;5058912;28;20492;-70
2023/12/25 07:10:23;;;;;;;10.75;1.20;;;;;;;-146.27;87.05;31803.59;5065169;28;20259;-70
2023/12/25 07:12:49;;;;;;;8.57;1.13;;;;;;;-146.27;86.46;31688.53;5066727;28;20388;-69
2023/12/25 07:15:14;;;;;;;6.80;1.80;;;;;;;-146.27;86.96;31817.47;5067064;28;20029;-71
2023/12/25 07:17:39;;;;;;;12.35;2.50;;;;;;;-146.27;87.11;31789.69;5069508;28;20032;-69
2023/12/25 07:20:06;;;;;;;4.80;0.80;;;;;;;-146.27;86.43;31736.16;5069579;28;20037;-69
2023/12/25 07:22:31;;;;;;;8.65;1.15;;;;;;;-146.27;87.38;31799.63;5065635;28;20028;-70
2023/12/25 07:24:57;;;;;;;3.40;0.90;;;;;;;-146.27;86.86;31728.22;5068822;28;20384;-69
2023/12/25 07:27:23;;;;;;;4.43;0.98;;;;;;;-146.27;86.43;31700.44;5063260;28;20465;-70
2023/12/25 07:29:48;;;;;;;4.53;0.80;;;;;;;-146.27;86.66;31742.09;5077601;28;20035;-68
2023/12/25 07:32:14;;;;;;;4.10;0.82;;;;;;;-146.27;86.66;31761.94;5067470;28;20024;-68
2023/12/25 07:34:39;;;;;;;7.22;1.25;;;;;;;-146.27;87.92;31783.75;5064476;28;20025;-71
2023/12/25 07:37:04;;;;;;;7.32;0.80;;;;;;;-146.27;87.69;31799.63;5062258;28;20017;-71
2023/12/25 07:39:30;;;;;;;12.02;1.30;;;;;;;-146.27;86.40;31662.75;5067203;28;20464;-71
2023/12/25 07:41:56;;;;;;;8.50;1.10;;;;;;;-146.27;86.41;31712.34;5069324;28;20042;-71
2023/12/25 07:44:22;;;;;;;7.47;1.13;;;;;;;-146.27;87.32;31781.75;5062806;28;20025;-71
2023/12/25 07:46:48;;;;;;;4.97;1.00;;;;;;;-146.27;87.16;31746.06;5067439;28;20112;-71
2023/12/25 07:49:13;;;;;;;7.07;1.08;;;;;;;-146.27;86.87;31696.47;5063912;28;20067;-70
2023/12/25 07:51:38;;;;;;;13.15;1.40;;;;;;;-146.27;87.26;31775.81;5066134;28;20102;-71
2023/12/25 07:54:04;;;;;;;8.52;1.30;;;;;;;-146.27;86.83;31750.03;5067495;28;20043;-71
2023/12/25 07:56:30;;;;;;;6.05;1.20;;;;;;;-146.27;86.62;31783.75;5062080;28;20039;-70
2023/12/25 07:58:56;;;;;;;11.10;1.58;;;;;;;-146.27;85.86;31728.22;5067083;28;20048;-71
2023/12/25 08:01:22;;;;;;;6.95;0.90;;;;;;;-146.27;85.67;31696.47;5061037;28;20179;-71
2023/12/25 08:03:50;;;;;;;7.50;1.27;;;;;;;-146.27;85.83;31714.34;5065659;28;20152;-71
2023/12/25 08:06:17;;;;;;;5.93;1.13;;;;;;;-146.27;85.39;31680.63;5068941;28;20052;-72
2023/12/25 08:08:42;;;;;;;4.57;0.88;;;;;;;-146.27;84.80;31652.84;5061895;28;20028;-71
2023/12/25 08:11:07;;;;;;;6.90;0.80;;;;;;;-146.27;85.35;31752.00;5071013;28;20564;-70
2023/12/25 08:13:33;;;;;;;10.95;1.25;;;;;;;-146.27;85.82;31728.22;5066868;28;20040;-70
2023/12/25 08:15:58;;;;;;;7.00;1.40;;;;;;;-146.27;85.99;31805.56;5068856;28;20035;-70
2023/12/25 08:18:23;;;;;;;16.95;1.90;;;;;;;-146.27;85.72;31807.53;5068722;28;20040;-71
2023/12/25 08:20:49;;;;;;;13.93;1.38;;;;;;;-146.27;85.16;31716.31;5068042;28;20016;-72
2023/12/25 08:23:14;;;;;;;5.97;1.38;;;;;;;-146.27;85.39;31789.69;5071354;28;20094;-70
2023/12/25 08:25:40;;;;;;;3.92;0.75;;;;;;;-146.27;85.84;31660.78;5074275;28;20495;-71
2023/12/25 08:28:06;;;;;;;4.78;0.90;;;;;;;-146.27;86.72;31863.09;5069536;28;20033;-71
2023/12/25 08:30:31;;;;;;;11.02;1.38;;;;;;;-146.27;86.28;31740.13;5067968;28;20056;-71
2023/12/25 08:32:57;;;;;;;4.47;1.30;;;;;;;-146.27;85.73;31670.69;5059577;28;20024;-70
2023/12/25 08:35:22;;;;;;;3.58;1.23;;;;;;;-146.27;86.11;31748.03;5068977;28;20032;-69
2023/12/25 08:37:48;;;;;;;5.95;0.85;;;;;;;-146.27;86.40;31744.06;5064319;28;20344;-70
2023/12/25 08:40:13;;;;;;;7.57;0.95;;;;;;;-146.27;86.10;31696.47;5060588;28;20443;-71
2023/12/25 08:42:39;;;;;;;4.60;1.15;;;;;;;-146.27;86.25;31700.44;5049432;28;20036;-69
2023/12/25 08:45:06;;;;;;;6.03;1.23;;;;;;;-146.27;87.31;31789.69;5048143;28;20050;-70
2023/12/25 08:47:31;;;;;;;12.23;0.90;;;;;;;-146.27;86.18;31656.81;5064945;28;20100;-70
2023/12/25 08:49:56;;;;;;;5.18;1.00;;;;;;;-146.27;86.84;31726.22;5069231;28;20119;-70
2023/12/25 08:52:22;;;;;;;5.80;0.77;;;;;;;-146.27;86.10;31670.69;5052638;28;20396;-71
2023/12/25 08:54:48;;;;;;;4.40;0.95;;;;;;;-146.27;85.62;31617.16;5066113;28;20401;-70
2023/12/25 08:57:13;;;;;;;3.72;1.63;;;;;;;-146.27;85.48;31585.41;5066899;28;20032;-69
2023/12/25 08:59:39;;;;;;;1.38;0.60;;;;;;;-146.27;85.59;31664.75;5065294;28;20020;-70
2023/12/25 09:02:04;;;;;;;5.47;0.93;;;;;;;-146.27;85.21;31617.16;5065591;28;20109;-70
2023/12/25 09:04:29;;;;;;;10.57;1.15;;;;;;;-146.27;85.70;31676.66;5072327;28;20021;-72
2023/12/25 09:06:55;;;;;;;9.52;1.13;;;;;;;-146.27;85.87;31763.91;5072911;28;20028;-72
2023/12/25 09:09:21;;;;;;;9.88;1.45;;;;;;;-146.27;85.56;31754.00;5068312;28;20024;-71
2023/12/25 09:11:47;;;;;;;6.07;1.10;;;;;;;-146.27;84.50;31625.09;5074537;28;20027;-70
2023/12/25 09:14:13;;;;;;;8.35;1.02;;;;;;;-146.27;84.77;31771.84;5071155;28;20030;-70
2023/12/25 09:16:38;;;;;;;7.30;1.00;;;;;;;-146.27;84.66;31754.00;5060105;28;20075;-70
2023/12/25 09:19:04;;;;;;;6.40;1.60;;;;;;;-146.27;84.29;31759.94;5068898;28;20124;-72
2023/12/25 09:21:29;;;;;;;8.82;1.60;;;;;;;-146.27;83.75;31795.66;5071109;28;20032;-71
2023/12/25 09:23:55;;;;;;;4.00;1.20;;;;;;;-146.27;83.63;31863.09;5070551;28;20112;-71
2023/12/25 09:26:24;;;;;;;9.82;1.35;;;;;;;-146.27;83.25;31779.78;5058234;28;20099;-71
2023/12/25 09:28:50;;;;;;;3.30;1.13;;;;;;;-146.27;82.46;31767.88;5069492;28;20120;-70
2023/12/25 09:31:17;;;;;;;4.40;0.95;;;;;;;-146.27;81.79;31654.84;5081994;28;20056;-70
2023/12/25 09:33:42;;;;;;;11.55;1.60;;;;;;;-146.27;81.33;31664.75;5067927;28;20537;-69
2023/12/25 09:36:08;;;;;;;4.80;0.70;;;;;;;-146.27;81.35;31815.47;5066157;28;20472;-69
2023/12/25 09:38:33;;;;;;;4.82;0.70;;;;;;;-146.27;81.04;31706.41;5057090;28;20393;-70
2023/12/25 09:40:59;;;;;;;11.32;1.00;;;;;;;-146.27;80.48;31716.31;5070517;28;20020;-71
2023/12/25 09:43:27;;;;;;;8.43;0.80;;;;;;;-146.27;80.32;31710.38;5084791;28;20489;-71
2023/12/25 09:45:53;;;;;;;6.25;1.05;;;;;;;-146.27;80.25;31666.72;5081077;28;20048;-71
2023/12/25 09:48:18;;;;;;;5.35;1.05;;;;;;;-146.27;80.21;31696.47;5067366;28;20075;-71
2023/12/25 09:50:44;;;;;;;7.05;1.05;;;;;;;-146.27;79.93;31660.78;5067044;28;20467;-70
2023/12/25 09:53:09;;;;;;;5.18;0.90;;;;;;;-146.27;79.56;31664.75;5057622;28;20109;-71
2023/12/25 09:55:35;;;;;;;8.55;1.30;;;;;;;-146.27;79.23;31623.09;5062651;28;20129;-69
2023/12/25 09:58:06;;;;;;;6.00;0.90;;;;;;;-146.27;79.66;31656.81;5068822;28;20063;-71
2023/12/25 10:00:31;;;;;;;7.50;1.02;;;;;;;-146.27;79.41;31621.13;5078042;28;20056;-68
2023/12/25 10:03:00;;;;;;;7.13;0.98;;;;;;;-146.27;79.25;31573.53;5074752;28;20063;-72
2023/12/25 10:05:26;;;;;;;7.47;1.05;;;;;;;-146.27;81.03;31837.28;5069622;28;20078;-70
2023/12/25 10:07:51;;;;;;;6.35;1.17;;;;;;;-146.27;79.78;31680.63;5072562;28;20028;-69
2023/12/25 10:10:17;;;;;;;5.25;0.88;;;;;;;-146.27;79.05;31595.34;5070797;28;20029;-70
2023/12/25 10:12:44;;;;;;;6.15;1.00;;;;;;;-146.27;78.91;31623.09;5069105;28;20062;-70
2023/12/25 10:15:11;;;;;;;6.65;1.30;;;;;;;-146.27;78.42;31555.66;5066168;28;20023;-71
2023/12/25 10:17:37;;;;;;;4.15;0.98;;;;;;;-146.27;78.43;31557.66;5061054;28;20040;-70
2023/12/25 10:20:04;;;;;;;8.57;1.40;;;;;;;-146.27;78.39;31662.75;5071811;28;20038;-71
2023/12/25 10:22:33;;;;;;;5.45;0.70;;;;;;;-146.27;77.63;31585.41;5064780;28;20055;-70
2023/12/25 10:25:07;;;;;;;7.05;1.00;;;;;;;-146.27;77.52;31577.47;5068225;28;20037;-70
2023/12/25 10:27:34;;;;;;;6.05;1.10;;;;;;;-146.27;77.41;31698.47;5067853;28;20020;-70
2023/12/25 10:30:01;;;;;;;3.05;1.00;;;;;;;-146.27;77.25;31636.97;5076750;28;20175;-70
2023/12/25 10:32:26;;;;;;;2.45;0.65;;;;;;;-146.27;77.39;31724.25;5054156;28;20055;-71
2023/12/25 10:35:09;;;;;;;4.97;1.08;;;;;;;-146.27;76.86;31531.88;5061015;28;20105;-70
2023/12/25 10:37:37;;;;;;;12.23;2.40;;;;;;;-146.27;77.08;31631.03;5068220;28;20020;-70
2023/12/25 10:40:19;;;;;;;2.67;0.95;;;;;;;-146.27;76.90;31601.28;5071329;28;20120;-71
2023/12/25 10:42:48;;;;;;;2.25;0.57;;;;;;;-146.27;77.59;31664.75;5058862;28;20349;-72
2023/12/25 10:45:18;;;;;;;6.03;0.95;;;;;;;-146.27;77.26;31672.69;5058532;28;20031;-70
2023/12/25 10:47:46;;;;;;;3.35;0.95;;;;;;;-146.27;76.74;31529.88;5050358;28;20028;-69
2023/12/25 10:50:12;;;;;;;8.05;1.40;;;;;;;-146.27;77.07;31601.28;5060747;28;20039;-70
2023/12/25 10:52:38;;;;;;;5.47;0.70;;;;;;;-146.27;76.79;31486.25;5059837;28;20020;-70
2023/12/25 10:55:05;;;;;;;2.33;0.65;;;;;;;-146.27;77.16;31476.34;5061469;28;20084;-71
2023/12/25 10:57:30;;;;;;;9.13;1.13;;;;;;;-146.27;77.18;31569.56;5061936;28;20028;-69
2023/12/25 10:59:57;;;;;;;8.48;1.35;;;;;;;-146.27;77.61;31561.63;5065582;28;20028;-70
2023/12/25 11:02:27;;;;;;;6.47;1.80;;;;;;;-146.27;76.96;31399.00;5066228;28;20073;-69
2023/12/25 11:04:53;;;;;;;2.55;0.73;;;;;;;-146.27;77.55;31480.31;5072007;28;20044;-67